createdAt,value
2017-09-29T00:00:26.210Z,14.20
2017-09-29T00:02:53.621Z,14.20
2017-09-29T00:05:21.808Z,14.30
2017-09-29T00:07:50.102Z,14.50
2017-09-29T00:10:17.521Z,14.50
2017-09-29T00:12:45.719Z,14.70
2017-09-29T00:15:13.202Z,14.70
2017-09-29T00:17:40.646Z,14.80
2017-09-29T00:20:08.058Z,14.70
2017-09-29T00:22:35.477Z,14.70
2017-09-29T00:25:02.907Z,14.70
2017-09-29T00:27:30.490Z,14.70
2017-09-29T00:29:57.882Z,14.60
2017-09-29T00:32:26.070Z,14.50
2017-09-29T00:34:54.265Z,14.60
2017-09-29T00:37:21.678Z,14.60
2017-09-29T00:39:49.206Z,14.70
2017-09-29T00:42:16.610Z,14.80
2017-09-29T00:44:44.797Z,14.90
2017-09-29T00:47:13.502Z,14.80
2017-09-29T00:49:40.917Z,14.80
2017-09-29T00:52:08.343Z,14.70
2017-09-29T00:54:35.787Z,14.70
2017-09-29T00:57:03.202Z,14.70
2017-09-29T00:59:31.397Z,14.70
2017-09-29T01:01:58.872Z,14.60
2017-09-29T01:04:26.350Z,14.60
2017-09-29T01:06:53.770Z,14.60
2017-09-29T01:09:21.194Z,14.60
2017-09-29T01:11:49.270Z,14.70
2017-09-29T01:14:16.773Z,14.80
2017-09-29T01:16:44.182Z,14.80
2017-09-29T01:19:12.390Z,14.70
2017-09-29T01:21:39.802Z,14.70
2017-09-29T01:24:07.991Z,14.90
2017-09-29T01:26:36.187Z,14.90
2017-09-29T01:29:03.602Z,14.90
2017-09-29T01:31:31.031Z,14.80
2017-09-29T01:33:58.477Z,14.70
2017-09-29T01:36:25.934Z,14.70
2017-09-29T01:38:53.353Z,14.80
2017-09-29T01:41:21.550Z,14.80
2017-09-29T01:43:48.969Z,14.80
2017-09-29T01:46:16.400Z,14.70
2017-09-29T01:48:43.822Z,14.70
2017-09-29T01:51:11.262Z,14.70
2017-09-29T01:53:38.678Z,14.70
2017-09-29T01:56:06.199Z,14.70
2017-09-29T01:58:33.634Z,14.70
2017-09-29T02:01:01.046Z,14.80
2017-09-29T02:03:28.482Z,14.70
2017-09-29T02:05:55.898Z,14.50
2017-09-29T02:08:24.082Z,14.20
2017-09-29T02:10:51.503Z,14.20
2017-09-29T02:13:18.931Z,14.20
2017-09-29T02:15:46.399Z,14.50
2017-09-29T02:18:13.806Z,14.60
2017-09-29T02:20:41.223Z,14.70
2017-09-29T02:23:08.649Z,14.80
2017-09-29T02:25:36.097Z,14.80
2017-09-29T02:28:03.491Z,14.70
2017-09-29T02:30:30.944Z,14.80
2017-09-29T02:32:58.369Z,14.70
2017-09-29T02:35:25.846Z,14.50
2017-09-29T02:37:53.265Z,14.50
2017-09-29T02:40:20.733Z,14.50
2017-09-29T02:42:48.161Z,14.60
2017-09-29T02:45:16.370Z,14.90
2017-09-29T02:47:43.798Z,14.90
2017-09-29T02:50:11.282Z,15.10
2017-09-29T02:52:38.697Z,15.00
2017-09-29T02:55:06.885Z,15.00
2017-09-29T02:57:36.971Z,15.00
2017-09-29T03:00:06.230Z,15.00
2017-09-29T03:02:37.286Z,15.10
2017-09-29T03:05:07.760Z,15.20
2017-09-29T03:07:35.946Z,15.30
2017-09-29T03:10:03.374Z,15.30
2017-09-29T03:12:30.902Z,15.30
2017-09-29T03:14:59.161Z,15.30
2017-09-29T03:17:26.623Z,15.20
2017-09-29T03:19:54.082Z,15.20
2017-09-29T03:22:21.522Z,15.30
2017-09-29T03:24:48.990Z,15.30
2017-09-29T03:27:16.410Z,15.20
2017-09-29T03:29:44.615Z,15.20
2017-09-29T03:32:12.042Z,15.20
2017-09-29T03:34:40.245Z,15.10
2017-09-29T03:37:07.671Z,15.10
2017-09-29T03:39:35.854Z,15.10
2017-09-29T03:42:03.910Z,15.10
2017-09-29T03:44:32.133Z,15.20
2017-09-29T03:46:59.550Z,15.20
2017-09-29T03:49:27.729Z,15.40
2017-09-29T03:51:57.830Z,15.40
2017-09-29T03:54:27.578Z,15.50
2017-09-29T03:56:57.429Z,15.50
2017-09-29T03:59:24.854Z,15.50
2017-09-29T04:01:52.277Z,15.50
2017-09-29T04:04:20.466Z,15.40
2017-09-29T04:06:47.885Z,15.40
2017-09-29T04:09:15.302Z,15.40
2017-09-29T04:11:42.730Z,15.50
2017-09-29T04:14:10.150Z,15.40
2017-09-29T04:16:37.579Z,15.30
2017-09-29T04:19:04.998Z,15.20
2017-09-29T04:21:32.426Z,15.40
2017-09-29T04:23:59.842Z,15.50
2017-09-29T04:26:27.284Z,15.60
2017-09-29T04:28:54.691Z,15.70
2017-09-29T04:31:22.126Z,15.70
2017-09-29T04:33:49.542Z,15.70
2017-09-29T04:36:16.968Z,15.70
2017-09-29T04:38:44.386Z,15.60
2017-09-29T04:41:11.809Z,15.60
2017-09-29T04:43:39.230Z,15.50
2017-09-29T04:46:06.655Z,15.50
2017-09-29T04:48:34.075Z,15.50
2017-09-29T04:51:01.574Z,15.00
2017-09-29T04:59:35.482Z,14.30
2017-09-29T05:02:02.914Z,14.30
2017-09-29T05:04:31.095Z,14.30
2017-09-29T05:06:59.282Z,14.30
2017-09-29T05:09:26.707Z,14.30
2017-09-29T05:11:54.126Z,14.40
2017-09-29T05:14:21.548Z,14.40
2017-09-29T05:16:49.734Z,14.40
2017-09-29T05:19:17.923Z,14.40
2017-09-29T05:21:45.342Z,14.50
2017-09-29T05:24:13.539Z,14.90
2017-09-29T05:26:40.958Z,14.90
2017-09-29T05:29:08.383Z,15.20
2017-09-29T05:31:35.806Z,15.30
2017-09-29T05:34:03.232Z,15.20
2017-09-29T05:36:30.645Z,15.00
2017-09-29T05:38:58.070Z,15.00
2017-09-29T05:41:25.489Z,15.10
2017-09-29T05:43:52.919Z,15.30
2017-09-29T05:46:20.348Z,15.40
2017-09-29T05:48:47.761Z,15.60
2017-09-29T05:51:15.179Z,15.70
2017-09-29T05:53:42.594Z,15.80
2017-09-29T05:56:10.790Z,15.80
2017-09-29T05:58:38.218Z,15.80
2017-09-29T06:01:06.411Z,15.80
2017-09-29T06:03:33.835Z,15.80
2017-09-29T06:06:01.261Z,15.70
2017-09-29T06:08:28.686Z,15.40
2017-09-29T06:10:56.114Z,15.10
2017-09-29T06:13:24.295Z,15.10
2017-09-29T06:15:52.483Z,15.20
2017-09-29T06:18:19.900Z,15.20
2017-09-29T06:20:47.323Z,15.30
2017-09-29T06:23:14.746Z,15.50
2017-09-29T06:25:42.942Z,15.80
2017-09-29T06:28:10.359Z,15.80
2017-09-29T06:30:38.546Z,16.00
2017-09-29T06:33:06.739Z,16.20
2017-09-29T06:35:34.157Z,16.10
2017-09-29T06:38:02.359Z,16.10
2017-09-29T06:40:29.774Z,16.10
2017-09-29T06:42:57.198Z,15.80
2017-09-29T06:45:24.627Z,15.70
2017-09-29T06:47:52.046Z,15.70
2017-09-29T06:50:19.481Z,15.70
2017-09-29T06:52:46.898Z,15.60
2017-09-29T06:55:14.331Z,15.70
2017-09-29T06:57:41.743Z,15.90
2017-09-29T07:00:09.162Z,16.00
2017-09-29T07:02:36.578Z,15.90
2017-09-29T07:05:04.002Z,16.00
2017-09-29T07:07:31.437Z,16.10
2017-09-29T07:09:58.854Z,16.20
2017-09-29T07:12:26.270Z,16.40
2017-09-29T07:14:53.686Z,16.50
2017-09-29T07:17:21.879Z,16.80
2017-09-29T07:19:49.303Z,16.70
2017-09-29T07:22:16.713Z,17.00
2017-09-29T07:24:45.251Z,17.20
2017-09-29T07:27:15.174Z,16.90
2017-09-29T07:29:44.595Z,16.80
2017-09-29T07:32:12.255Z,16.80
2017-09-29T07:34:39.675Z,16.60
2017-09-29T07:37:07.098Z,16.60
2017-09-29T07:39:34.522Z,17.30
2017-09-29T07:42:01.943Z,17.20
2017-09-29T07:44:29.371Z,17.60
2017-09-29T07:46:56.811Z,18.20
2017-09-29T07:49:24.218Z,18.40
2017-09-29T07:51:52.418Z,18.00
2017-09-29T07:54:19.839Z,18.00
2017-09-29T07:56:47.259Z,17.80
2017-09-29T07:59:14.695Z,17.60
2017-09-29T08:01:42.114Z,17.70
2017-09-29T08:04:09.552Z,17.70
2017-09-29T08:06:36.962Z,17.80
2017-09-29T08:09:04.386Z,18.10
2017-09-29T08:11:32.580Z,19.30
2017-09-29T08:14:00.003Z,19.30
2017-09-29T08:16:27.436Z,19.40
2017-09-29T08:18:54.860Z,19.40
2017-09-29T08:21:22.283Z,19.80
2017-09-29T08:23:49.698Z,20.80
2017-09-29T08:26:17.123Z,21.60
2017-09-29T08:28:44.544Z,21.70
2017-09-29T08:31:11.967Z,21.60
2017-09-29T08:33:39.385Z,21.20
2017-09-29T08:36:06.878Z,20.80
2017-09-29T08:38:34.303Z,20.70
2017-09-29T08:41:01.726Z,20.70
2017-09-29T08:43:29.139Z,20.70
2017-09-29T08:45:56.597Z,20.60
2017-09-29T08:48:23.995Z,20.40
2017-09-29T08:50:51.438Z,20.10
2017-09-29T08:53:18.849Z,20.20
2017-09-29T08:55:46.278Z,20.20
2017-09-29T08:58:14.458Z,19.80
2017-09-29T09:00:42.644Z,19.90
2017-09-29T09:03:10.066Z,19.90
2017-09-29T09:05:37.490Z,20.60
2017-09-29T09:08:04.918Z,21.20
2017-09-29T09:10:32.376Z,21.70
2017-09-29T09:12:59.767Z,22.20
2017-09-29T09:15:27.199Z,22.50
2017-09-29T09:17:54.619Z,22.80
2017-09-29T09:20:22.835Z,23.00
2017-09-29T09:22:50.288Z,23.00
2017-09-29T09:25:17.740Z,22.90
2017-09-29T09:27:45.150Z,22.90
2017-09-29T09:30:12.662Z,22.70
2017-09-29T09:32:40.127Z,22.50
2017-09-29T09:35:07.546Z,22.30
2017-09-29T09:37:35.726Z,23.20
2017-09-29T09:40:04.027Z,24.50
2017-09-29T09:42:31.431Z,24.50
2017-09-29T09:44:58.857Z,24.90
2017-09-29T09:47:26.274Z,25.80
2017-09-29T09:49:53.683Z,26.80
2017-09-29T09:52:21.724Z,25.90
2017-09-29T09:54:49.124Z,25.40
2017-09-29T09:57:16.535Z,25.10
2017-09-29T09:59:43.965Z,25.00
2017-09-29T10:02:12.171Z,25.70
2017-09-29T10:04:39.578Z,25.70
2017-09-29T10:07:06.995Z,25.30
2017-09-29T10:09:34.403Z,25.40
2017-09-29T10:12:01.819Z,25.00
2017-09-29T10:14:29.240Z,24.90
2017-09-29T10:16:56.810Z,25.00
2017-09-29T10:19:24.218Z,24.40
2017-09-29T10:21:52.427Z,24.00
2017-09-29T10:24:19.846Z,24.00
2017-09-29T10:26:48.065Z,23.80
2017-09-29T10:29:15.518Z,23.70
2017-09-29T10:31:42.935Z,23.00
2017-09-29T10:34:11.117Z,23.00
2017-09-29T10:36:39.298Z,22.90
2017-09-29T10:39:06.714Z,22.90
2017-09-29T10:41:34.138Z,22.90
2017-09-29T10:44:01.558Z,22.80
2017-09-29T10:46:29.764Z,22.40
2017-09-29T10:48:57.186Z,22.40
2017-09-29T10:51:25.366Z,21.90
2017-09-29T10:53:53.574Z,21.60
2017-09-29T10:56:20.972Z,21.60
2017-09-29T10:58:48.390Z,21.50
2017-09-29T11:01:15.806Z,21.50
2017-09-29T11:03:44.014Z,21.70
2017-09-29T11:06:11.422Z,21.70
2017-09-29T11:08:39.606Z,22.60
2017-09-29T11:11:07.794Z,23.00
2017-09-29T11:13:35.996Z,23.00
2017-09-29T11:16:03.399Z,23.70
2017-09-29T11:18:30.809Z,24.20
2017-09-29T11:20:58.226Z,24.60
2017-09-29T11:23:26.414Z,25.10
2017-09-29T11:25:53.834Z,25.00
2017-09-29T11:28:21.250Z,25.30
2017-09-29T11:30:48.670Z,24.90
2017-09-29T11:33:16.859Z,25.00
2017-09-29T11:35:44.283Z,25.00
2017-09-29T11:38:11.690Z,24.80
2017-09-29T11:40:39.128Z,24.60
2017-09-29T11:43:06.530Z,24.40
2017-09-29T11:45:33.965Z,24.00
2017-09-29T11:48:01.410Z,23.60
2017-09-29T11:50:28.868Z,23.40
2017-09-29T11:52:56.324Z,23.80
2017-09-29T11:55:23.754Z,23.80
2017-09-29T11:57:51.934Z,23.70
2017-09-29T12:00:19.359Z,23.70
2017-09-29T12:02:46.778Z,23.30
2017-09-29T12:05:14.224Z,23.10
2017-09-29T12:07:41.642Z,22.80
2017-09-29T12:10:09.838Z,23.10
2017-09-29T12:12:37.254Z,23.00
2017-09-29T12:15:04.685Z,22.80
2017-09-29T12:17:32.128Z,22.60
2017-09-29T12:19:59.538Z,23.10
2017-09-29T12:22:27.727Z,23.70
2017-09-29T12:24:55.914Z,23.90
2017-09-29T12:27:23.330Z,23.80
2017-09-29T12:29:50.746Z,23.50
2017-09-29T12:32:18.170Z,23.90
2017-09-29T12:34:46.350Z,24.50
2017-09-29T12:37:13.771Z,24.40
2017-09-29T12:39:41.191Z,24.00
2017-09-29T12:42:08.639Z,23.90
2017-09-29T12:44:36.054Z,23.90
2017-09-29T12:47:04.233Z,23.80
2017-09-29T12:49:32.425Z,24.10
2017-09-29T12:51:59.839Z,24.10
2017-09-29T12:54:27.261Z,24.30
2017-09-29T12:56:54.669Z,24.40
2017-09-29T12:59:22.167Z,24.30
2017-09-29T13:01:49.630Z,24.40
2017-09-29T13:04:17.025Z,24.30
2017-09-29T13:06:44.440Z,24.00
2017-09-29T13:09:11.858Z,23.60
2017-09-29T13:11:40.047Z,23.50
2017-09-29T13:14:07.460Z,23.40
2017-09-29T13:16:34.870Z,23.50
2017-09-29T13:19:02.302Z,23.80
2017-09-29T13:21:30.494Z,23.80
2017-09-29T13:23:57.903Z,23.80
2017-09-29T13:26:25.320Z,23.90
2017-09-29T13:28:52.734Z,23.80
2017-09-29T13:31:20.922Z,23.60
2017-09-29T13:33:49.121Z,23.70
2017-09-29T13:36:16.522Z,23.70
2017-09-29T13:38:44.146Z,23.50
2017-09-29T13:41:11.539Z,23.70
2017-09-29T13:43:38.952Z,24.00
2017-09-29T13:46:06.389Z,24.00
2017-09-29T13:48:34.434Z,24.10
2017-09-29T13:51:02.673Z,23.60
2017-09-29T13:53:30.078Z,23.60
2017-09-29T13:55:58.263Z,23.00
2017-09-29T13:58:25.673Z,23.00
2017-09-29T14:00:53.206Z,23.10
2017-09-29T14:03:20.630Z,23.30
2017-09-29T14:05:48.806Z,23.00
2017-09-29T14:08:16.222Z,23.00
2017-09-29T14:10:43.637Z,22.80
2017-09-29T14:13:11.099Z,22.70
2017-09-29T14:15:38.515Z,22.80
2017-09-29T14:18:06.701Z,23.30
2017-09-29T14:20:34.907Z,23.40
2017-09-29T14:23:02.320Z,23.40
2017-09-29T14:25:29.816Z,23.00
2017-09-29T14:27:57.278Z,23.10
2017-09-29T14:30:24.734Z,23.20
2017-09-29T14:32:52.150Z,23.50
2017-09-29T14:35:20.366Z,23.50
2017-09-29T14:37:47.794Z,23.50
2017-09-29T14:40:15.276Z,23.00
2017-09-29T14:42:42.693Z,22.70
2017-09-29T14:45:10.878Z,22.20
2017-09-29T14:47:39.061Z,22.80
2017-09-29T14:50:06.494Z,22.80
2017-09-29T14:52:34.710Z,22.60
2017-09-29T14:55:02.172Z,22.60
2017-09-29T14:57:29.586Z,22.40
2017-09-29T14:59:57.762Z,23.00
2017-09-29T15:02:25.971Z,23.10
2017-09-29T15:04:53.394Z,23.10
2017-09-29T15:07:21.699Z,22.70
2017-09-29T15:09:49.111Z,22.70
2017-09-29T15:12:16.619Z,22.50
2017-09-29T15:14:44.039Z,22.10
2017-09-29T15:17:12.209Z,22.00
2017-09-29T15:19:40.411Z,22.30
2017-09-29T15:22:07.880Z,22.30
2017-09-29T15:24:35.341Z,22.60
2017-09-29T15:27:02.797Z,23.00
2017-09-29T15:29:30.251Z,23.00
2017-09-29T15:31:57.707Z,23.00
2017-09-29T15:34:25.131Z,22.50
2017-09-29T15:36:53.885Z,22.00
2017-09-29T15:39:21.304Z,21.90
2017-09-29T15:41:48.764Z,21.80
2017-09-29T15:44:16.221Z,21.50
2017-09-29T15:46:43.787Z,21.50
2017-09-29T15:49:11.250Z,21.50
2017-09-29T15:51:38.695Z,21.30
2017-09-29T15:54:06.350Z,21.10
2017-09-29T15:56:33.753Z,20.90
2017-09-29T15:59:01.373Z,20.80
2017-09-29T16:01:28.778Z,20.70
2017-09-29T16:03:56.196Z,20.70
2017-09-29T16:06:23.610Z,20.60
2017-09-29T16:08:51.815Z,20.60
2017-09-29T16:11:19.271Z,20.60
2017-09-29T16:13:46.683Z,20.50
2017-09-29T16:16:14.874Z,20.30
2017-09-29T16:18:43.054Z,20.00
2017-09-29T16:21:10.487Z,20.00
2017-09-29T16:23:38.098Z,19.90
2017-09-29T16:26:05.490Z,20.10
2017-09-29T16:28:33.115Z,20.10
2017-09-29T16:31:00.489Z,20.00
2017-09-29T16:33:28.023Z,20.00
2017-09-29T16:35:55.435Z,19.80
2017-09-29T16:38:23.623Z,19.70
2017-09-29T16:40:51.827Z,19.70
2017-09-29T16:43:19.258Z,19.70
2017-09-29T16:45:47.438Z,19.60
2017-09-29T16:48:14.910Z,19.60
2017-09-29T16:50:42.327Z,19.40
2017-09-29T16:53:10.510Z,19.00
2017-09-29T16:55:38.681Z,18.90
2017-09-29T16:58:06.897Z,18.80
2017-09-29T17:00:34.311Z,18.80
2017-09-29T17:03:02.535Z,18.60
2017-09-29T17:05:29.955Z,18.60
2017-09-29T17:07:58.161Z,18.50
2017-09-29T17:10:25.612Z,18.40
2017-09-29T17:12:53.031Z,18.40
2017-09-29T17:15:21.242Z,18.40
2017-09-29T17:17:48.704Z,18.40
2017-09-29T17:20:16.117Z,18.50
2017-09-29T17:22:44.290Z,18.60
2017-09-29T17:25:13.374Z,18.80
2017-09-29T17:27:41.010Z,18.80
2017-09-29T17:30:08.550Z,18.80
2017-09-29T17:32:35.958Z,18.90
2017-09-29T17:35:04.154Z,19.20
2017-09-29T17:37:31.636Z,19.10
2017-09-29T17:40:00.016Z,19.20
2017-09-29T17:42:27.418Z,19.20
2017-09-29T17:44:54.841Z,19.00
2017-09-29T17:47:22.278Z,18.90
2017-09-29T17:49:49.742Z,18.80
2017-09-29T17:52:17.198Z,18.90
2017-09-29T17:54:44.654Z,18.90
2017-09-29T17:57:12.082Z,18.70
2017-09-29T17:59:39.494Z,18.60
2017-09-29T18:02:06.923Z,18.40
2017-09-29T18:04:34.376Z,18.20
2017-09-29T18:07:01.822Z,18.20
2017-09-29T18:09:29.290Z,18.20
2017-09-29T18:11:56.702Z,18.20
2017-09-29T18:14:24.926Z,18.40
2017-09-29T18:16:52.381Z,18.40
2017-09-29T18:19:19.798Z,18.40
2017-09-29T18:21:48.007Z,18.20
2017-09-29T18:24:15.470Z,18.20
2017-09-29T18:26:42.882Z,18.10
2017-09-29T18:29:11.099Z,18.10
2017-09-29T18:31:38.552Z,18.00
2017-09-29T18:34:05.976Z,18.10
2017-09-29T18:36:34.146Z,18.40
2017-09-29T18:39:02.325Z,18.40
2017-09-29T18:41:32.912Z,18.40
2017-09-29T18:44:10.992Z,18.40
2017-09-29T18:46:41.022Z,18.40
2017-09-29T18:49:08.425Z,18.40
2017-09-29T18:51:36.746Z,18.40
2017-09-29T18:54:04.153Z,18.40
2017-09-29T18:56:32.337Z,18.20
2017-09-29T18:59:00.530Z,18.00
2017-09-29T19:01:28.004Z,18.00
2017-09-29T19:03:55.460Z,17.80
2017-09-29T19:06:22.878Z,17.70
2017-09-29T19:08:51.054Z,17.70
2017-09-29T19:11:19.268Z,17.80
2017-09-29T19:13:46.670Z,17.80
2017-09-29T19:16:14.174Z,17.70
2017-09-29T19:18:41.603Z,17.40
2017-09-29T19:21:09.773Z,17.30
2017-09-29T19:23:37.962Z,17.30
2017-09-29T19:26:05.380Z,17.30
2017-09-29T19:28:32.806Z,17.20
2017-09-29T19:31:00.221Z,17.10
2017-09-29T19:33:28.430Z,17.10
2017-09-29T19:35:55.838Z,17.10
2017-09-29T19:38:24.027Z,17.00
2017-09-29T19:40:52.796Z,17.10
2017-09-29T19:43:20.301Z,17.00
2017-09-29T19:45:47.714Z,17.00
2017-09-29T19:48:15.907Z,17.10
2017-09-29T19:50:43.326Z,17.00
2017-09-29T19:53:10.753Z,17.10
2017-09-29T19:55:38.205Z,17.10
2017-09-29T19:58:05.615Z,17.20
2017-09-29T20:00:33.841Z,17.30
2017-09-29T20:03:01.242Z,17.30
2017-09-29T20:05:28.679Z,17.30
2017-09-29T20:07:56.202Z,17.20
2017-09-29T20:10:23.621Z,17.10
2017-09-29T20:12:51.842Z,17.20
2017-09-29T20:15:19.265Z,17.20
2017-09-29T20:17:47.467Z,17.30
2017-09-29T20:20:14.895Z,17.30
2017-09-29T20:22:42.385Z,17.30
2017-09-29T20:25:09.814Z,17.20
2017-09-29T20:27:38.827Z,17.10
2017-09-29T20:30:06.255Z,17.10
2017-09-29T20:32:34.434Z,17.10
2017-09-29T20:35:01.914Z,17.10
2017-09-29T20:37:29.362Z,17.00
2017-09-29T20:39:56.773Z,16.80
2017-09-29T20:42:24.202Z,16.80
2017-09-29T20:44:51.619Z,16.90
2017-09-29T20:47:19.102Z,17.10
2017-09-29T20:49:46.559Z,17.20
2017-09-29T20:52:13.961Z,17.10
2017-09-29T20:54:41.378Z,16.80
2017-09-29T20:57:08.829Z,16.70
2017-09-29T20:59:36.279Z,16.80
2017-09-29T21:02:03.741Z,16.90
2017-09-29T21:04:31.143Z,16.90
2017-09-29T21:06:58.651Z,16.90
2017-09-29T21:09:26.073Z,17.00
2017-09-29T21:11:54.393Z,17.00
2017-09-29T21:14:21.810Z,17.00
2017-09-29T21:16:49.995Z,16.70
2017-09-29T21:19:17.418Z,16.70
2017-09-29T21:21:45.650Z,16.40
2017-09-29T21:24:13.077Z,16.40
2017-09-29T21:26:40.498Z,16.30
2017-09-29T21:29:07.922Z,16.20
2017-09-29T21:31:35.369Z,16.20
2017-09-29T21:34:02.798Z,16.20
2017-09-29T21:36:31.006Z,16.40
2017-09-29T21:38:58.434Z,16.40
2017-09-29T21:41:25.919Z,16.50
2017-09-29T21:43:53.330Z,16.40
2017-09-29T21:46:21.527Z,16.20
2017-09-29T21:48:48.953Z,16.20
2017-09-29T21:51:16.463Z,16.30
2017-09-29T21:53:43.874Z,16.50
2017-09-29T21:56:12.062Z,16.60
2017-09-29T21:58:40.271Z,16.60
2017-09-29T22:01:07.704Z,16.60
2017-09-29T22:03:36.108Z,16.60
2017-09-29T22:06:03.526Z,16.70
2017-09-29T22:08:31.736Z,16.60
2017-09-29T22:10:59.205Z,16.50
2017-09-29T22:13:26.633Z,16.50
2017-09-29T22:15:54.049Z,16.40
2017-09-29T22:18:21.469Z,16.40
2017-09-29T22:20:48.889Z,16.30
2017-09-29T22:23:16.319Z,16.10
2017-09-29T22:25:43.754Z,16.10
2017-09-29T22:28:11.186Z,16.10
2017-09-29T22:30:38.644Z,15.90
2017-09-29T22:33:06.204Z,15.70
2017-09-29T22:35:33.597Z,15.80
2017-09-29T22:38:01.847Z,15.80
2017-09-29T22:40:29.253Z,15.80
2017-09-29T22:42:57.446Z,15.80
2017-09-29T22:45:24.862Z,15.80
2017-09-29T22:47:53.094Z,15.80
2017-09-29T22:50:20.502Z,15.80
2017-09-29T22:52:48.745Z,15.80
2017-09-29T22:55:16.182Z,15.80
2017-09-29T22:57:43.609Z,15.90
2017-09-29T23:00:11.027Z,15.90
2017-09-29T23:02:38.473Z,16.00
2017-09-29T23:05:06.005Z,16.00
2017-09-29T23:07:33.423Z,16.10
2017-09-29T23:10:01.620Z,16.30
2017-09-29T23:12:29.033Z,16.30
2017-09-29T23:14:57.218Z,16.40
2017-09-29T23:17:24.634Z,16.40
2017-09-29T23:19:52.049Z,16.40
2017-09-29T23:22:20.238Z,16.50
2017-09-29T23:24:47.655Z,16.40
2017-09-29T23:27:15.073Z,16.50
2017-09-29T23:29:42.493Z,16.40
2017-09-29T23:32:10.672Z,16.30
2017-09-29T23:34:38.089Z,16.30
2017-09-29T23:37:05.509Z,16.20
2017-09-29T23:39:32.929Z,16.20
2017-09-29T23:42:01.126Z,16.30
2017-09-29T23:44:28.542Z,16.30
2017-09-29T23:46:55.970Z,16.40
2017-09-29T23:49:23.389Z,16.50
2017-09-29T23:51:50.818Z,16.40
2017-09-29T23:54:18.998Z,16.20
2017-09-29T23:56:47.213Z,16.20
2017-09-29T23:59:14.630Z,16.20
